createdAt,value
2023-02-19T00:00:18.936Z,11.40
2023-02-19T00:02:45.569Z,11.33
2023-02-19T00:05:12.207Z,11.31
2023-02-19T00:07:38.907Z,11.35
2023-02-19T00:10:05.774Z,11.28
2023-02-19T00:12:32.403Z,11.29
2023-02-19T00:14:58.991Z,11.28
2023-02-19T00:17:25.596Z,11.33
2023-02-19T00:19:52.289Z,11.33
2023-02-19T00:22:18.905Z,11.31
2023-02-19T00:24:46.491Z,11.28
2023-02-19T00:27:14.418Z,11.27
2023-02-19T00:29:41.056Z,11.13
2023-02-19T00:32:07.750Z,11.03
2023-02-19T00:34:34.393Z,11.08
2023-02-19T00:37:01.017Z,11.13
2023-02-19T00:39:27.628Z,11.05
2023-02-19T00:41:54.247Z,11.04
2023-02-19T00:44:21.001Z,11.09
2023-02-19T00:46:47.588Z,11.04
2023-02-19T00:49:21.893Z,10.97
2023-02-19T00:51:49.018Z,10.96
2023-02-19T00:54:15.750Z,10.94
2023-02-19T00:56:42.438Z,10.91
2023-02-19T00:59:09.316Z,10.87
2023-02-19T01:01:36.035Z,10.84
2023-02-19T01:04:04.304Z,10.81
2023-02-19T01:06:32.875Z,10.79
2023-02-19T01:08:59.474Z,10.82
2023-02-19T01:11:26.109Z,10.80
2023-02-19T01:13:52.886Z,10.84
2023-02-19T01:16:20.986Z,10.81
2023-02-19T01:18:47.848Z,10.76
2023-02-19T01:21:19.359Z,10.68
2023-02-19T01:23:46.370Z,10.67
2023-02-19T01:26:15.142Z,10.75
2023-02-19T01:28:41.825Z,10.80
2023-02-19T01:31:10.920Z,10.77
2023-02-19T01:33:37.846Z,10.73
2023-02-19T01:36:04.934Z,10.81
2023-02-19T01:38:31.586Z,10.82
2023-02-19T01:41:02.295Z,10.80
2023-02-19T01:43:28.882Z,10.80
2023-02-19T01:45:55.528Z,10.86
2023-02-19T01:48:33.455Z,10.82
2023-02-19T01:51:06.196Z,10.78
2023-02-19T01:53:35.745Z,10.75
2023-02-19T01:56:02.410Z,10.73
2023-02-19T01:58:31.528Z,10.76
2023-02-19T02:00:58.684Z,10.74
2023-02-19T02:03:25.487Z,10.70
2023-02-19T02:06:04.647Z,10.73
2023-02-19T02:08:31.617Z,10.74
2023-02-19T02:10:58.360Z,10.68
2023-02-19T02:13:25.092Z,10.63
2023-02-19T02:16:11.421Z,10.64
2023-02-19T02:19:02.843Z,10.59
2023-02-19T02:22:03.175Z,10.60
2023-02-19T02:24:37.158Z,10.61
2023-02-19T02:27:06.555Z,10.56
2023-02-19T02:29:51.927Z,10.52
2023-02-19T02:32:24.776Z,10.43
2023-02-19T02:34:58.201Z,10.53
2023-02-19T02:37:25.771Z,10.58
2023-02-19T02:39:52.413Z,10.53
2023-02-19T02:42:19.054Z,10.51
2023-02-19T02:44:45.685Z,10.56
2023-02-19T02:47:12.294Z,10.52
2023-02-19T02:49:38.948Z,10.56
2023-02-19T02:52:05.654Z,10.56
2023-02-19T02:54:33.050Z,10.58
2023-02-19T02:56:59.662Z,10.52
2023-02-19T02:59:27.856Z,10.53
2023-02-19T03:02:09.393Z,10.58
2023-02-19T03:04:57.913Z,10.59
2023-02-19T03:07:24.581Z,10.57
2023-02-19T03:09:51.211Z,10.58
2023-02-19T03:12:17.912Z,10.53
2023-02-19T03:14:46.717Z,10.50
2023-02-19T03:17:26.169Z,10.45
2023-02-19T03:19:54.368Z,10.40
2023-02-19T03:22:24.668Z,10.42
2023-02-19T03:24:54.239Z,10.40
2023-02-19T03:27:20.880Z,10.47
2023-02-19T03:29:47.802Z,10.46
2023-02-19T03:32:21.122Z,10.42
2023-02-19T03:35:28.162Z,10.37
2023-02-19T03:38:00.589Z,10.34
2023-02-19T03:40:29.652Z,10.31
2023-02-19T03:43:21.370Z,10.30
2023-02-19T03:45:49.378Z,10.36
2023-02-19T03:48:15.957Z,10.37
2023-02-19T03:51:17.876Z,10.41
2023-02-19T03:53:56.084Z,10.42
2023-02-19T03:56:27.980Z,10.43
2023-02-19T03:59:02.055Z,10.42
2023-02-19T04:01:41.738Z,10.41
2023-02-19T04:04:12.973Z,10.30
2023-02-19T04:06:39.674Z,10.37
2023-02-19T04:09:07.497Z,10.33
2023-02-19T04:11:34.159Z,10.28
2023-02-19T04:14:29.904Z,10.36
2023-02-19T04:16:59.848Z,10.31
2023-02-19T04:19:26.485Z,10.53
2023-02-19T04:21:53.327Z,10.65
2023-02-19T04:24:23.351Z,10.80
2023-02-19T04:26:49.955Z,10.84
2023-02-19T04:29:16.578Z,10.95
2023-02-19T04:31:43.211Z,11.03
2023-02-19T04:34:09.893Z,11.06
2023-02-19T04:36:36.513Z,11.01
2023-02-19T04:39:03.118Z,10.93
2023-02-19T04:41:29.744Z,11.06
2023-02-19T04:43:56.449Z,11.16
2023-02-19T04:46:23.131Z,11.18
2023-02-19T04:48:49.803Z,11.27
2023-02-19T04:51:16.479Z,11.42
2023-02-19T04:53:43.125Z,11.38
2023-02-19T04:56:14.404Z,11.41
2023-02-19T04:58:41.469Z,11.34
2023-02-19T05:01:08.986Z,11.41
2023-02-19T05:03:36.101Z,11.37
2023-02-19T05:06:06.922Z,11.30
2023-02-19T05:08:33.570Z,11.22
2023-02-19T05:11:00.765Z,11.21
2023-02-19T05:13:27.440Z,11.18
2023-02-19T05:16:01.434Z,11.16
2023-02-19T05:18:28.245Z,11.16
2023-02-19T05:20:54.867Z,11.10
2023-02-19T05:23:21.484Z,11.08
2023-02-19T05:25:48.638Z,11.03
2023-02-19T05:28:15.325Z,11.02
2023-02-19T05:30:41.937Z,11.00
2023-02-19T05:33:08.577Z,10.89
2023-02-19T05:35:40.164Z,10.83
2023-02-19T05:38:06.846Z,10.69
2023-02-19T05:40:33.768Z,10.72
2023-02-19T05:43:00.354Z,10.65
2023-02-19T05:45:26.993Z,10.58
2023-02-19T05:47:53.659Z,10.61
2023-02-19T05:50:20.352Z,10.61
2023-02-19T05:52:46.996Z,10.59
2023-02-19T05:55:13.668Z,10.40
2023-02-19T05:57:43.961Z,10.60
2023-02-19T06:00:20.225Z,10.62
2023-02-19T06:02:46.909Z,10.66
2023-02-19T06:05:13.972Z,10.72
2023-02-19T06:07:40.613Z,10.80
2023-02-19T06:10:07.801Z,10.74
2023-02-19T06:12:34.400Z,10.80
2023-02-19T06:15:00.989Z,10.75
2023-02-19T06:17:27.604Z,10.77
2023-02-19T06:19:54.199Z,10.77
2023-02-19T06:22:20.900Z,10.87
2023-02-19T06:24:47.871Z,10.89
2023-02-19T06:27:14.534Z,10.92
2023-02-19T06:29:41.134Z,10.91
2023-02-19T06:32:07.915Z,11.03
2023-02-19T06:34:34.789Z,11.08
2023-02-19T06:37:01.432Z,11.10
2023-02-19T06:39:28.042Z,11.08
2023-02-19T06:41:57.860Z,11.20
2023-02-19T06:44:24.740Z,11.33
2023-02-19T06:46:51.558Z,11.29
2023-02-19T06:49:18.160Z,11.34
2023-02-19T06:51:44.808Z,11.36
2023-02-19T06:54:11.483Z,11.42
2023-02-19T06:56:38.738Z,11.41
2023-02-19T06:59:07.454Z,11.49
2023-02-19T07:01:34.923Z,11.52
2023-02-19T07:04:01.759Z,11.57
2023-02-19T07:06:28.475Z,11.63
2023-02-19T07:08:55.731Z,11.59
2023-02-19T07:11:22.606Z,11.58
2023-02-19T07:14:03.673Z,11.61
2023-02-19T07:16:30.480Z,11.53
2023-02-19T07:18:57.894Z,11.64
2023-02-19T07:21:24.574Z,11.72
2023-02-19T07:23:51.211Z,11.84
2023-02-19T07:26:18.564Z,11.87
2023-02-19T07:28:45.987Z,11.92
2023-02-19T07:31:13.091Z,11.97
2023-02-19T07:33:40.002Z,11.98
2023-02-19T07:36:07.354Z,12.04
2023-02-19T07:38:34.024Z,12.15
2023-02-19T07:41:01.782Z,12.23
2023-02-19T07:43:30.193Z,12.25
2023-02-19T07:45:56.880Z,12.31
2023-02-19T07:48:23.710Z,12.43
2023-02-19T07:50:53.516Z,12.46
2023-02-19T07:53:20.306Z,12.49
2023-02-19T07:55:46.940Z,12.59
2023-02-19T07:58:13.572Z,12.64
2023-02-19T08:00:40.253Z,12.73
2023-02-19T08:03:06.886Z,12.81
2023-02-19T08:05:34.780Z,12.81
2023-02-19T08:08:01.449Z,12.92
2023-02-19T08:10:28.194Z,13.02
2023-02-19T08:13:03.741Z,13.09
2023-02-19T08:15:30.419Z,13.19
2023-02-19T08:17:57.122Z,13.18
2023-02-19T08:20:23.763Z,13.25
2023-02-19T08:22:50.548Z,13.25
2023-02-19T08:25:17.168Z,13.35
2023-02-19T08:27:43.768Z,13.38
2023-02-19T08:30:10.839Z,13.48
2023-02-19T08:32:37.561Z,13.52
2023-02-19T08:35:04.456Z,13.44
2023-02-19T08:37:31.231Z,13.48
2023-02-19T08:39:57.847Z,13.65
2023-02-19T08:42:24.499Z,13.74
2023-02-19T08:44:51.213Z,13.86
2023-02-19T08:47:17.950Z,13.84
2023-02-19T08:49:44.620Z,13.97
2023-02-19T08:52:11.257Z,14.00
2023-02-19T08:54:37.903Z,13.97
2023-02-19T08:57:04.569Z,14.06
2023-02-19T08:59:31.722Z,14.10
2023-02-19T09:01:58.923Z,13.97
2023-02-19T09:04:25.578Z,14.11
2023-02-19T09:06:52.264Z,13.89
2023-02-19T09:09:18.864Z,14.00
2023-02-19T09:11:47.386Z,13.96
2023-02-19T09:14:15.120Z,13.97
2023-02-19T09:16:41.837Z,13.87
2023-02-19T09:19:08.458Z,13.84
2023-02-19T09:21:35.165Z,14.02
2023-02-19T09:24:01.865Z,14.14
2023-02-19T09:26:28.505Z,14.05
2023-02-19T09:28:55.163Z,14.32
2023-02-19T09:31:21.904Z,14.39
2023-02-19T09:33:48.664Z,14.37
2023-02-19T09:36:15.680Z,14.36
2023-02-19T09:38:42.518Z,14.45
2023-02-19T09:41:33.384Z,14.42
2023-02-19T09:44:00.593Z,14.41
2023-02-19T09:46:49.072Z,14.35
2023-02-19T09:49:18.537Z,14.44
2023-02-19T09:51:53.788Z,14.60
2023-02-19T09:54:29.439Z,14.65
2023-02-19T09:56:56.677Z,14.63
2023-02-19T09:59:28.903Z,14.70
2023-02-19T10:02:21.191Z,14.71
2023-02-19T10:04:48.395Z,14.68
2023-02-19T10:07:39.121Z,14.73
2023-02-19T10:10:14.834Z,14.80
2023-02-19T10:12:45.885Z,14.82
2023-02-19T10:15:26.679Z,14.78
2023-02-19T10:17:53.301Z,14.79
2023-02-19T10:20:20.941Z,14.78
2023-02-19T10:22:47.584Z,14.68
2023-02-19T10:25:15.108Z,14.64
2023-02-19T10:27:41.741Z,14.77
2023-02-19T10:30:20.032Z,14.88
2023-02-19T10:33:09.780Z,14.98
2023-02-19T10:35:37.807Z,15.00
2023-02-19T10:38:05.013Z,15.14
2023-02-19T10:40:31.687Z,15.18
2023-02-19T10:43:00.944Z,15.14
2023-02-19T10:45:40.478Z,15.29
2023-02-19T10:48:07.224Z,15.35
2023-02-19T10:50:36.317Z,15.38
2023-02-19T10:53:03.014Z,15.44
2023-02-19T10:55:36.029Z,15.54
2023-02-19T10:58:24.618Z,15.57
2023-02-19T11:01:22.772Z,15.59
2023-02-19T11:03:53.485Z,15.61
2023-02-19T11:06:21.235Z,15.46
2023-02-19T11:08:58.501Z,15.39
2023-02-19T11:11:37.958Z,15.04
2023-02-19T11:14:13.142Z,14.98
2023-02-19T11:16:47.064Z,15.15
2023-02-19T11:19:42.533Z,15.41
2023-02-19T11:22:30.714Z,15.62
2023-02-19T11:24:59.587Z,15.77
2023-02-19T11:27:26.246Z,15.86
2023-02-19T11:29:52.840Z,15.97
2023-02-19T11:32:24.484Z,15.95
2023-02-19T11:34:51.273Z,16.01
2023-02-19T11:37:19.350Z,16.12
2023-02-19T11:39:50.146Z,16.16
2023-02-19T11:42:44.820Z,16.19
2023-02-19T11:45:20.352Z,16.23
2023-02-19T11:47:49.972Z,16.26
2023-02-19T11:50:24.264Z,16.23
2023-02-19T11:53:14.734Z,16.28
2023-02-19T11:56:03.111Z,16.30
2023-02-19T11:59:00.388Z,16.24
2023-02-19T12:01:30.970Z,16.28
2023-02-19T12:04:16.318Z,16.26
2023-02-19T12:06:55.485Z,16.16
2023-02-19T12:09:28.121Z,16.14
2023-02-19T12:11:58.714Z,16.26
2023-02-19T12:14:43.531Z,16.30
2023-02-19T12:17:40.809Z,16.37
2023-02-19T12:20:16.305Z,16.49
2023-02-19T12:23:08.906Z,16.43
2023-02-19T12:26:14.218Z,16.55
2023-02-19T12:29:02.472Z,16.48
2023-02-19T12:31:42.856Z,16.53
2023-02-19T12:34:30.199Z,16.50
2023-02-19T12:37:11.757Z,16.49
2023-02-19T12:39:50.369Z,16.60
2023-02-19T12:43:05.087Z,16.64
2023-02-19T12:45:38.443Z,16.75
2023-02-19T12:48:13.989Z,16.86
2023-02-19T12:50:41.103Z,16.89
2023-02-19T12:53:43.285Z,16.87
2023-02-19T12:56:15.906Z,16.94
2023-02-19T12:58:52.162Z,17.02
2023-02-19T13:01:24.123Z,17.06
2023-02-19T13:04:13.914Z,17.16
2023-02-19T13:06:43.155Z,17.15
2023-02-19T13:09:16.115Z,17.16
2023-02-19T13:11:51.010Z,17.10
2023-02-19T13:14:26.936Z,17.13
2023-02-19T13:16:57.767Z,17.12
2023-02-19T13:19:24.458Z,17.12
2023-02-19T13:22:02.074Z,17.10
2023-02-19T13:24:33.861Z,17.05
2023-02-19T13:27:19.105Z,16.90
2023-02-19T13:29:48.526Z,16.81
2023-02-19T13:32:33.859Z,16.84
2023-02-19T13:35:15.785Z,16.89
2023-02-19T13:37:42.429Z,16.96
2023-02-19T13:40:31.596Z,16.97
2023-02-19T13:42:59.788Z,16.84
2023-02-19T13:45:38.348Z,16.93
2023-02-19T13:48:24.087Z,16.99
2023-02-19T13:50:51.386Z,16.97
2023-02-19T13:53:42.863Z,17.00
2023-02-19T13:56:31.377Z,17.05
2023-02-19T13:59:23.677Z,17.00
2023-02-19T14:01:50.304Z,16.98
2023-02-19T14:04:23.401Z,17.01
2023-02-19T14:07:05.236Z,17.01
2023-02-19T14:09:34.884Z,17.02
2023-02-19T14:12:02.263Z,16.93
2023-02-19T14:14:44.231Z,16.95
2023-02-19T14:17:10.774Z,16.90
2023-02-19T14:19:50.581Z,16.90
2023-02-19T14:22:45.098Z,16.81
2023-02-19T14:25:34.879Z,16.94
2023-02-19T14:28:10.183Z,17.03
2023-02-19T14:30:48.527Z,17.16
2023-02-19T14:33:16.296Z,17.08
2023-02-19T14:35:45.024Z,17.03
2023-02-19T14:38:26.622Z,16.96
2023-02-19T14:40:53.292Z,16.91
2023-02-19T14:43:20.944Z,16.85
2023-02-19T14:45:49.658Z,16.63
2023-02-19T14:48:19.672Z,16.46
2023-02-19T14:50:47.952Z,16.40
2023-02-19T14:53:14.594Z,16.32
2023-02-19T14:55:41.236Z,16.25
2023-02-19T14:58:12.462Z,16.13
2023-02-19T15:00:40.552Z,16.09
2023-02-19T15:03:07.389Z,16.13
2023-02-19T15:05:35.352Z,16.09
2023-02-19T15:08:03.794Z,16.04
2023-02-19T15:10:31.069Z,16.02
2023-02-19T15:13:01.497Z,16.08
2023-02-19T15:15:29.274Z,16.09
2023-02-19T15:17:56.516Z,16.15
2023-02-19T15:20:24.278Z,16.13
2023-02-19T15:22:51.314Z,16.19
2023-02-19T15:25:19.847Z,16.12
2023-02-19T15:27:46.752Z,16.16
2023-02-19T15:30:24.595Z,16.11
2023-02-19T15:32:58.576Z,16.17
2023-02-19T15:35:28.528Z,16.21
2023-02-19T15:37:55.265Z,16.25
2023-02-19T15:40:28.414Z,16.25
2023-02-19T15:42:55.075Z,16.24
2023-02-19T15:45:52.153Z,16.25
2023-02-19T15:48:20.909Z,16.29
2023-02-19T15:50:49.181Z,16.29
2023-02-19T15:53:17.617Z,16.29
2023-02-19T15:56:17.323Z,16.31
2023-02-19T15:58:47.842Z,16.26
2023-02-19T16:01:24.427Z,16.29
2023-02-19T16:03:51.496Z,16.28
2023-02-19T16:06:18.213Z,16.26
2023-02-19T16:08:46.400Z,16.11
2023-02-19T16:11:38.848Z,16.18
2023-02-19T16:14:25.257Z,16.13
2023-02-19T16:16:55.087Z,16.11
2023-02-19T16:19:28.235Z,16.10
2023-02-19T16:21:55.332Z,15.72
2023-02-19T16:24:29.152Z,15.60
2023-02-19T16:26:55.765Z,15.59
2023-02-19T16:29:32.265Z,15.62
2023-02-19T16:32:03.911Z,15.68
2023-02-19T16:34:44.077Z,15.70
2023-02-19T16:37:40.862Z,15.48
2023-02-19T16:40:07.554Z,15.42
2023-02-19T16:42:34.845Z,15.10
2023-02-19T16:45:01.514Z,14.85
2023-02-19T16:47:46.436Z,14.80
2023-02-19T16:50:23.129Z,14.73
2023-02-19T16:53:00.664Z,14.52
2023-02-19T16:55:27.706Z,14.47
2023-02-19T16:57:54.500Z,14.30
2023-02-19T17:00:25.556Z,14.12
2023-02-19T17:02:53.924Z,13.99
2023-02-19T17:05:20.600Z,13.95
2023-02-19T17:07:47.264Z,14.10
2023-02-19T17:10:22.785Z,14.03
2023-02-19T17:12:50.092Z,13.77
2023-02-19T17:15:16.701Z,13.69
2023-02-19T17:17:43.357Z,13.29
2023-02-19T17:20:15.630Z,13.60
2023-02-19T17:22:42.342Z,13.60
2023-02-19T17:25:09.019Z,13.49
2023-02-19T17:27:35.813Z,13.46
2023-02-19T17:30:04.226Z,13.34
2023-02-19T17:32:32.350Z,13.40
2023-02-19T17:35:00.219Z,13.51
2023-02-19T17:37:28.256Z,13.48
2023-02-19T17:39:54.905Z,13.59
2023-02-19T17:42:21.622Z,13.16
2023-02-19T17:44:48.357Z,13.26
2023-02-19T17:47:14.957Z,13.13
2023-02-19T17:49:41.635Z,13.07
2023-02-19T17:52:08.235Z,13.24
2023-02-19T17:54:34.898Z,13.11
2023-02-19T17:57:01.564Z,13.06
2023-02-19T17:59:28.178Z,12.97
2023-02-19T18:01:54.796Z,12.90
2023-02-19T18:04:21.545Z,12.88
2023-02-19T18:06:48.210Z,12.90
2023-02-19T18:09:14.817Z,12.93
2023-02-19T18:11:45.271Z,13.05
2023-02-19T18:14:11.926Z,12.70
2023-02-19T18:16:44.049Z,12.61
2023-02-19T18:19:10.724Z,12.76
2023-02-19T18:21:37.404Z,12.94
2023-02-19T18:24:04.466Z,12.88
2023-02-19T18:26:31.161Z,13.03
2023-02-19T18:28:59.697Z,13.08
2023-02-19T18:31:26.426Z,13.18
2023-02-19T18:33:54.314Z,13.12
2023-02-19T18:36:22.445Z,12.99
2023-02-19T18:38:50.325Z,12.96
2023-02-19T18:41:19.764Z,12.90
2023-02-19T18:43:47.222Z,13.05
2023-02-19T18:46:14.439Z,13.10
2023-02-19T18:48:42.546Z,13.16
2023-02-19T18:51:10.088Z,13.26
2023-02-19T18:53:38.348Z,13.31
2023-02-19T18:56:06.486Z,13.25
2023-02-19T18:58:33.103Z,13.37
2023-02-19T19:00:59.787Z,13.45
2023-02-19T19:03:26.558Z,13.45
2023-02-19T19:05:53.289Z,13.42
2023-02-19T19:08:20.071Z,13.43
2023-02-19T19:10:46.719Z,13.45
2023-02-19T19:13:14.339Z,13.46
2023-02-19T19:15:40.990Z,13.45
2023-02-19T19:18:08.834Z,13.49
2023-02-19T19:20:36.320Z,13.46
2023-02-19T19:23:02.938Z,13.42
2023-02-19T19:25:29.576Z,13.42
2023-02-19T19:27:56.220Z,13.49
2023-02-19T19:30:22.985Z,13.48
2023-02-19T19:32:50.044Z,13.45
2023-02-19T19:35:17.528Z,13.38
2023-02-19T19:37:44.172Z,13.43
2023-02-19T19:40:11.425Z,13.34
2023-02-19T19:42:38.378Z,13.36
2023-02-19T19:45:06.695Z,13.32
2023-02-19T19:47:34.520Z,13.38
2023-02-19T19:50:02.410Z,13.41
2023-02-19T19:52:29.011Z,13.31
2023-02-19T19:54:55.808Z,13.32
2023-02-19T19:57:24.368Z,13.27
2023-02-19T19:59:52.501Z,13.29
2023-02-19T20:02:20.475Z,13.22
2023-02-19T20:04:47.135Z,13.24
2023-02-19T20:07:14.384Z,13.27
2023-02-19T20:09:42.803Z,13.29
2023-02-19T20:12:10.420Z,13.09
2023-02-19T20:14:38.371Z,13.20
2023-02-19T20:17:06.475Z,13.12
2023-02-19T20:19:34.422Z,13.18
2023-02-19T20:22:01.074Z,13.12
2023-02-19T20:24:27.915Z,13.10
2023-02-19T20:26:55.855Z,13.05
2023-02-19T20:29:22.527Z,12.94
2023-02-19T20:31:49.659Z,12.72
2023-02-19T20:34:16.445Z,12.80
2023-02-19T20:36:47.069Z,12.76
2023-02-19T20:39:14.874Z,12.80
2023-02-19T20:41:48.057Z,12.73
2023-02-19T20:44:14.706Z,12.61
2023-02-19T20:46:44.947Z,12.66
2023-02-19T20:49:16.552Z,12.70
2023-02-19T20:51:50.443Z,12.44
2023-02-19T20:54:18.353Z,12.26
2023-02-19T20:56:48.629Z,12.30
2023-02-19T20:59:16.097Z,12.36
2023-02-19T21:01:42.815Z,12.16
2023-02-19T21:04:09.480Z,12.30
2023-02-19T21:06:36.119Z,12.40
2023-02-19T21:09:03.213Z,12.46
2023-02-19T21:11:29.826Z,12.61
2023-02-19T21:13:56.444Z,12.62
2023-02-19T21:16:23.271Z,12.72
2023-02-19T21:18:49.946Z,12.81
2023-02-19T21:21:20.326Z,12.78
2023-02-19T21:23:47.556Z,12.74
2023-02-19T21:26:14.293Z,12.69
2023-02-19T21:28:41.063Z,12.80
2023-02-19T21:31:07.871Z,12.70
2023-02-19T21:33:34.540Z,12.73
2023-02-19T21:36:04.724Z,12.69
2023-02-19T21:38:32.680Z,12.70
2023-02-19T21:40:59.398Z,12.52
2023-02-19T21:43:26.542Z,12.51
2023-02-19T21:45:53.197Z,12.42
2023-02-19T21:48:19.812Z,12.44
2023-02-19T21:50:46.452Z,12.37
2023-02-19T21:53:13.439Z,12.48
2023-02-19T21:55:42.931Z,12.43
2023-02-19T21:58:16.591Z,12.44
2023-02-19T22:00:43.357Z,12.44
2023-02-19T22:03:15.292Z,12.46
2023-02-19T22:05:41.930Z,12.34
2023-02-19T22:08:08.573Z,12.37
2023-02-19T22:10:35.188Z,12.21
2023-02-19T22:13:01.781Z,12.09
2023-02-19T22:15:28.423Z,12.13
2023-02-19T22:17:55.167Z,12.07
2023-02-19T22:20:21.837Z,12.09
2023-02-19T22:22:48.621Z,12.12
2023-02-19T22:25:15.339Z,12.24
2023-02-19T22:27:41.997Z,12.33
2023-02-19T22:30:09.098Z,12.32
2023-02-19T22:32:35.888Z,12.31
2023-02-19T22:35:02.692Z,12.33
2023-02-19T22:37:29.373Z,12.29
2023-02-19T22:39:56.047Z,12.20
2023-02-19T22:42:22.665Z,12.26
2023-02-19T22:44:49.292Z,12.19
2023-02-19T22:47:17.716Z,12.00
2023-02-19T22:49:44.314Z,11.82
2023-02-19T22:52:10.946Z,11.82
2023-02-19T22:54:37.643Z,11.72
2023-02-19T22:57:04.276Z,11.71
2023-02-19T22:59:31.018Z,11.63
2023-02-19T23:01:57.726Z,11.42
2023-02-19T23:04:24.987Z,11.60
2023-02-19T23:06:51.702Z,11.71
2023-02-19T23:09:20.752Z,11.57
2023-02-19T23:11:47.396Z,11.62
2023-02-19T23:14:15.837Z,11.48
2023-02-19T23:16:42.573Z,11.64
2023-02-19T23:19:09.783Z,11.56
2023-02-19T23:21:36.414Z,11.62
2023-02-19T23:24:03.252Z,11.48
2023-02-19T23:26:29.862Z,11.53
2023-02-19T23:28:56.483Z,11.59
2023-02-19T23:31:23.337Z,11.57
2023-02-19T23:33:50.003Z,11.43
2023-02-19T23:36:16.591Z,11.56
2023-02-19T23:38:46.368Z,11.64
2023-02-19T23:41:14.201Z,11.47
2023-02-19T23:43:40.881Z,11.62
2023-02-19T23:46:07.556Z,11.46
2023-02-19T23:48:34.175Z,11.55
2023-02-19T23:51:00.780Z,11.35
2023-02-19T23:53:27.451Z,11.29
2023-02-19T23:55:54.239Z,11.46
2023-02-19T23:58:21.004Z,11.42
